Time;durP1;ratioP1;P1;durP2;ratioP2;P2;SDS_P1;SDS_P2;PMS_P1;PMS_P2;Temp;Humidity;BMP_temperature;BMP_pressure;BME280_temperature;BME280_humidity;BME280_pressure;Samples;Min_cycle;Max_cycle;Signal;HPM_P1;HPM_P2
2022/03/21 00:01:16;;;;;;;6.85;6.25;;;;;;;7.51;57.33;99834.84;4098114;28;20318;-56
2022/03/21 00:03:21;;;;;;;7.70;6.30;;;;;;;7.50;57.83;99838.59;4091789;28;22581;-56
2022/03/21 00:05:23;;;;;;;7.40;6.70;;;;;;;7.49;58.28;99836.94;4110526;28;20258;-57
2022/03/21 00:07:25;;;;;;;6.78;6.07;;;;;;;7.46;58.31;99837.31;4109843;28;20230;-57
2022/03/21 00:09:27;;;;;;;7.28;5.57;;;;;;;7.37;58.00;99838.50;4089820;28;20360;-55
2022/03/21 00:11:31;;;;;;;6.68;5.93;;;;;;;7.34;58.61;99841.59;4109163;28;20325;-56
2022/03/21 00:13:35;;;;;;;5.72;5.15;;;;;;;7.28;58.92;99845.97;4110211;28;20218;-56
2022/03/21 00:15:37;;;;;;;5.90;5.40;;;;;;;7.25;58.90;99849.09;4112053;28;20230;-56
2022/03/21 00:17:40;;;;;;;7.03;5.65;;;;;;;7.19;58.73;99844.44;4097778;28;20698;-56
2022/03/21 00:19:42;;;;;;;5.97;5.57;;;;;;;7.15;58.51;99842.31;4092314;28;20222;-57
2022/03/21 00:21:44;;;;;;;5.90;5.32;;;;;;;7.09;59.40;99846.63;4110420;28;20230;-57
2022/03/21 00:23:47;;;;;;;5.75;5.15;;;;;;;7.08;58.72;99846.84;4094201;28;20255;-56
2022/03/21 00:25:48;;;;;;;7.20;6.50;;;;;;;7.06;58.86;99840.75;4095122;28;20280;-56
2022/03/21 00:27:50;;;;;;;5.88;5.38;;;;;;;7.01;58.84;99843.19;4094849;28;20207;-56
2022/03/21 00:29:52;;;;;;;8.35;5.97;;;;;;;6.94;58.75;99837.69;4107645;28;20215;-56
2022/03/21 00:31:55;;;;;;;5.40;4.90;;;;;;;6.91;59.19;99842.69;4109159;28;20631;-56
2022/03/21 00:33:56;;;;;;;6.78;5.80;;;;;;;6.86;59.39;99839.72;4109549;28;20207;-56
2022/03/21 00:35:58;;;;;;;8.25;5.90;;;;;;;6.79;59.48;99838.81;4091598;28;20361;-56
2022/03/21 00:38:00;;;;;;;6.72;6.03;;;;;;;6.73;59.40;99845.00;4111750;28;20265;-55
2022/03/21 00:40:03;;;;;;;5.68;5.07;;;;;;;6.71;60.03;99841.66;4108471;28;20290;-56
2022/03/21 00:42:05;;;;;;;7.13;6.38;;;;;;;6.71;59.23;99847.09;4106886;28;20222;-56
2022/03/21 00:44:07;;;;;;;6.25;5.65;;;;;;;6.65;59.92;99853.28;4109581;28;20934;-56
2022/03/21 00:46:10;;;;;;;6.15;5.65;;;;;;;6.63;59.83;99855.38;4110506;28;20211;-55
2022/03/21 00:48:12;;;;;;;4.85;4.45;;;;;;;6.61;60.14;99846.53;4110894;28;20730;-56
2022/03/21 00:50:16;;;;;;;5.88;5.28;;;;;;;6.59;59.65;99848.63;4096078;28;20216;-55
2022/03/21 00:52:19;;;;;;;21.52;6.35;;;;;;;6.56;60.05;99843.59;4112149;28;20319;-56
2022/03/21 00:54:21;;;;;;;6.55;5.88;;;;;;;6.53;59.80;99850.25;4112746;28;20230;-55
2022/03/21 00:56:23;;;;;;;7.30;5.43;;;;;;;6.48;59.97;99846.44;4114462;28;20210;-57
2022/03/21 00:58:24;;;;;;;6.03;5.43;;;;;;;6.50;59.98;99849.78;4098225;28;20238;-55
2022/03/21 01:00:28;;;;;;;6.90;6.20;;;;;;;6.48;60.18;99841.81;4113260;28;20223;-56
2022/03/21 01:02:30;;;;;;;6.57;5.80;;;;;;;6.47;60.07;99855.59;4077379;29;20247;-56
2022/03/21 01:04:31;;;;;;;6.45;5.68;;;;;;;6.43;60.29;99848.88;4108963;28;20287;-57
2022/03/21 01:06:35;;;;;;;5.63;5.05;;;;;;;6.40;60.40;99851.94;4108006;28;20249;-57
2022/03/21 01:08:37;;;;;;;6.63;5.80;;;;;;;6.37;60.50;99857.78;4109756;28;20215;-56
2022/03/21 01:10:38;;;;;;;5.85;5.35;;;;;;;6.35;60.96;99863.41;4107267;28;21215;-56
2022/03/21 01:12:41;;;;;;;6.07;5.47;;;;;;;6.34;60.71;99860.88;4108893;28;20633;-56
2022/03/21 01:14:43;;;;;;;8.23;5.95;;;;;;;6.31;60.76;99855.81;4107855;28;20212;-56
2022/03/21 01:16:46;;;;;;;7.05;6.30;;;;;;;6.29;60.54;99857.91;4092858;28;20212;-56
2022/03/21 01:18:48;;;;;;;14.48;5.82;;;;;;;6.34;60.51;99860.88;4095592;28;20302;-55
2022/03/21 01:20:49;;;;;;;6.85;6.22;;;;;;;6.38;60.07;99862.19;4089443;28;20259;-56
2022/03/21 01:22:51;;;;;;;6.32;5.72;;;;;;;6.29;60.08;99863.34;4108616;28;20210;-57
2022/03/21 01:24:53;;;;;;;8.15;7.35;;;;;;;6.22;60.61;99862.41;4109325;28;20500;-57
2022/03/21 01:26:54;;;;;;;8.07;7.32;;;;;;;6.19;60.72;99862.78;4089345;28;20247;-56
2022/03/21 01:28:59;;;;;;;6.47;5.50;;;;;;;6.11;61.14;99865.59;4079935;29;20207;-59
2022/03/21 01:31:01;;;;;;;7.93;7.13;;;;;;;6.05;60.35;99867.22;4089121;28;21177;-57
2022/03/21 01:33:03;;;;;;;7.25;6.38;;;;;;;6.09;60.60;99862.22;4106953;28;20271;-57
2022/03/21 01:35:05;;;;;;;6.25;5.00;;;;;;;6.05;60.42;99863.63;4107911;28;20684;-56
2022/03/21 01:37:07;;;;;;;6.72;6.07;;;;;;;6.01;60.31;99856.88;4090030;28;20681;-56
2022/03/21 01:39:09;;;;;;;6.20;5.63;;;;;;;6.02;60.63;99866.75;4107764;28;20207;-57
2022/03/21 01:41:10;;;;;;;6.78;6.18;;;;;;;6.01;60.52;99859.59;4109921;28;20227;-56
2022/03/21 01:43:12;;;;;;;5.68;5.07;;;;;;;5.99;60.67;99861.66;4091556;28;20258;-55
2022/03/21 01:45:15;;;;;;;7.15;6.45;;;;;;;5.94;60.43;99864.94;4107823;28;20234;-56
2022/03/21 01:47:17;;;;;;;7.07;6.38;;;;;;;5.90;61.01;99852.75;4089062;28;20651;-55
2022/03/21 01:49:19;;;;;;;6.47;5.57;;;;;;;5.87;60.87;99868.59;4090778;28;20314;-56
2022/03/21 01:51:21;;;;;;;8.13;6.38;;;;;;;5.86;60.99;99866.91;4088639;28;20605;-56
2022/03/21 01:55:43;;;;;;;7.00;6.40;;;;;;;5.78;60.86;99870.53;4108681;28;20608;-57
2022/03/21 01:57:46;;;;;;;10.60;6.72;;;;;;;5.78;61.12;99869.69;4102073;28;20266;-56
2022/03/21 01:59:49;;;;;;;5.63;5.13;;;;;;;5.77;61.37;99870.72;4081082;28;20248;-56
2022/03/21 02:01:51;;;;;;;6.88;6.15;;;;;;;5.73;61.19;99869.41;4105700;28;20235;-55
2022/03/21 02:03:53;;;;;;;7.35;6.70;;;;;;;5.78;61.27;99870.53;4104418;28;20214;-56
2022/03/21 02:05:54;;;;;;;6.22;5.63;;;;;;;5.75;60.96;99878.22;4105740;28;20249;-56
2022/03/21 02:07:56;;;;;;;5.57;4.72;;;;;;;5.72;61.08;99876.72;4104235;28;20215;-55
2022/03/21 02:09:58;;;;;;;7.40;6.03;;;;;;;5.66;60.90;99872.03;4090795;28;20262;-56
2022/03/21 02:11:59;;;;;;;5.40;4.88;;;;;;;5.63;60.68;99882.41;4088411;28;20471;-55
2022/03/21 02:14:03;;;;;;;6.30;5.72;;;;;;;5.62;61.05;99869.88;4089825;28;20298;-56
2022/03/21 02:16:06;;;;;;;6.30;5.70;;;;;;;5.61;60.98;99873.59;4085267;28;20208;-56
2022/03/21 02:18:10;;;;;;;10.00;5.85;;;;;;;5.63;61.19;99871.56;4088637;28;20244;-55
2022/03/21 02:20:12;;;;;;;6.22;5.57;;;;;;;5.61;61.29;99885.31;4085197;28;20207;-56
2022/03/21 02:22:29;;;;;;;7.13;6.53;;;;;;;5.59;61.32;99881.09;4102274;28;20730;-56
2022/03/21 02:24:37;;;;;;;7.15;6.45;;;;;;;5.59;61.12;99883.81;4089171;28;20224;-56
2022/03/21 02:26:38;;;;;;;7.03;6.40;;;;;;;5.56;61.19;99879.59;4087807;28;21422;-56
2022/03/21 02:28:41;;;;;;;7.18;6.57;;;;;;;5.55;61.45;99874.38;4107285;28;20258;-56
2022/03/21 02:30:46;;;;;;;6.03;5.45;;;;;;;5.52;61.09;99878.28;4087702;28;20235;-56
2022/03/21 02:32:48;;;;;;;6.18;5.65;;;;;;;5.47;61.40;99871.69;4086443;28;20298;-56
2022/03/21 02:34:50;;;;;;;8.68;5.60;;;;;;;5.43;61.36;99875.84;4106962;28;20760;-57
2022/03/21 02:36:55;;;;;;;6.70;6.20;;;;;;;5.40;61.59;99870.75;4108283;28;20664;-56
2022/03/21 02:38:57;;;;;;;7.22;4.35;;;;;;;5.38;61.50;99878.25;4107049;28;20211;-56
2022/03/21 02:40:59;;;;;;;6.15;4.72;;;;;;;5.35;61.68;99878.63;4104035;28;20273;-56
2022/03/21 02:43:00;;;;;;;5.53;5.03;;;;;;;5.32;61.31;99887.13;4106206;28;21142;-57
2022/03/21 02:45:04;;;;;;;6.40;5.80;;;;;;;5.30;61.46;99883.75;4089521;28;20263;-56
2022/03/21 02:47:07;;;;;;;6.38;5.75;;;;;;;5.28;61.25;99883.06;4092343;28;20223;-57
2022/03/21 02:49:08;;;;;;;7.00;6.32;;;;;;;5.24;61.59;99879.06;4108566;28;20199;-56
2022/03/21 02:51:11;;;;;;;17.95;6.47;;;;;;;5.19;61.66;99884.19;4108187;28;20837;-57
2022/03/21 02:53:12;;;;;;;5.22;4.75;;;;;;;5.18;61.84;99877.06;4109200;28;20211;-56
2022/03/21 02:55:14;;;;;;;4.88;4.40;;;;;;;5.13;61.70;99884.09;4109409;28;20202;-56
2022/03/21 02:57:16;;;;;;;5.07;4.68;;;;;;;5.08;61.95;99888.16;4109574;28;20222;-56
2022/03/21 02:59:18;;;;;;;6.38;5.82;;;;;;;5.08;61.56;99881.88;4109864;28;20203;-56
2022/03/21 03:01:20;;;;;;;7.03;5.93;;;;;;;5.05;61.73;99887.69;4105758;28;20841;-57
2022/03/21 03:03:21;;;;;;;6.40;5.40;;;;;;;5.04;61.67;99886.84;4105596;28;20214;-56
2022/03/21 03:05:23;;;;;;;8.13;7.43;;;;;;;5.01;61.81;99891.78;4093534;28;20234;-57
2022/03/21 03:07:25;;;;;;;6.72;6.15;;;;;;;5.01;61.90;99897.19;4086989;28;20594;-57
2022/03/21 03:09:27;;;;;;;6.78;6.07;;;;;;;4.99;62.09;99882.16;4108181;28;20211;-56
2022/03/21 03:11:28;;;;;;;6.88;6.28;;;;;;;4.98;61.95;99897.56;4108481;28;20226;-56
2022/03/21 03:13:30;;;;;;;5.90;5.32;;;;;;;4.95;61.88;99891.66;4105969;28;20211;-57
2022/03/21 03:15:32;;;;;;;7.28;6.68;;;;;;;4.91;62.42;99893.91;4086217;28;20235;-56
2022/03/21 03:17:34;;;;;;;7.15;6.55;;;;;;;4.82;62.36;99892.28;4105489;28;20234;-56
2022/03/21 03:19:35;;;;;;;6.55;5.97;;;;;;;4.77;62.11;99888.41;4110011;28;20249;-57
2022/03/21 03:21:47;;;;;;;6.18;5.50;;;;;;;4.72;62.61;99891.66;4106213;28;20230;-56
2022/03/21 03:23:50;;;;;;;7.32;6.72;;;;;;;4.71;62.80;99899.97;4105627;28;21175;-56
2022/03/21 03:25:58;;;;;;;6.03;5.25;;;;;;;4.65;62.45;99904.25;4104717;28;20251;-56
2022/03/21 03:27:59;;;;;;;6.57;5.97;;;;;;;4.61;62.79;99892.06;4092341;28;20206;-56
2022/03/21 03:30:01;;;;;;;5.82;5.32;;;;;;;4.61;62.64;99893.94;4106563;28;20573;-56
2022/03/21 03:32:05;;;;;;;6.75;6.13;;;;;;;4.64;62.55;99896.28;4107795;28;20230;-57
2022/03/21 03:34:07;;;;;;;7.40;6.65;;;;;;;4.65;62.67;99896.09;4106365;28;20301;-56
2022/03/21 03:36:08;;;;;;;7.00;5.95;;;;;;;4.62;62.88;99901.91;4085260;28;20379;-56
2022/03/21 03:38:10;;;;;;;8.75;5.25;;;;;;;4.59;63.08;99913.09;4088759;28;20707;-56
2022/03/21 03:40:12;;;;;;;5.78;5.05;;;;;;;4.58;62.82;99911.41;4110548;28;20214;-56
2022/03/21 03:42:14;;;;;;;6.40;5.82;;;;;;;4.54;62.76;99909.22;4087001;28;20203;-56
2022/03/21 03:44:17;;;;;;;5.15;4.70;;;;;;;4.48;63.18;99908.06;4094919;28;20250;-57
2022/03/21 03:46:19;;;;;;;5.88;5.28;;;;;;;4.42;63.52;99916.91;4109188;28;20221;-57
2022/03/21 03:48:21;;;;;;;5.68;5.28;;;;;;;4.37;63.45;99911.19;4094392;28;20239;-56
2022/03/21 03:50:23;;;;;;;7.45;6.93;;;;;;;4.35;63.47;99913.19;4090852;28;20215;-57
2022/03/21 03:52:25;;;;;;;6.20;5.57;;;;;;;4.35;63.30;99913.19;4108326;28;20202;-56
2022/03/21 03:54:26;;;;;;;6.32;5.72;;;;;;;4.34;63.53;99916.94;4094054;28;20688;-56
2022/03/21 03:56:28;;;;;;;5.60;5.15;;;;;;;4.34;63.52;99913.41;4090614;28;20211;-56
2022/03/21 03:58:30;;;;;;;5.72;5.25;;;;;;;4.35;63.74;99913.19;4088233;28;20227;-56
2022/03/21 04:00:32;;;;;;;4.93;4.50;;;;;;;4.34;63.24;99908.81;4108134;28;20244;-56
2022/03/21 04:03:44;;;;;;;5.45;5.05;;;;;;;4.36;63.64;99912.19;4107166;28;20245;-57
2022/03/21 04:04:57;;;;;;;6.25;4.85;;;;;;;4.34;63.50;99911.50;4108283;28;20285;-56
2022/03/21 04:06:58;;;;;;;7.80;5.55;;;;;;;4.29;63.69;99913.94;4095319;28;20595;-56
2022/03/21 04:09:00;;;;;;;6.15;5.55;;;;;;;4.23;64.01;99917.34;4092465;28;20267;-56
2022/03/21 04:11:02;;;;;;;7.10;6.40;;;;;;;4.15;63.72;99914.63;4110647;28;20282;-57
2022/03/21 04:13:04;;;;;;;7.03;5.85;;;;;;;4.14;63.73;99923.78;4112712;28;20202;-57
2022/03/21 04:15:07;;;;;;;4.28;3.97;;;;;;;4.11;63.83;99923.28;4113740;28;20222;-56
2022/03/21 04:17:08;;;;;;;5.32;4.82;;;;;;;4.04;63.86;99923.16;4115620;28;20215;-56
2022/03/21 04:19:11;;;;;;;5.47;4.97;;;;;;;4.06;63.70;99923.00;4111435;28;20239;-56
2022/03/21 04:21:13;;;;;;;6.50;5.88;;;;;;;4.01;63.66;99923.50;4095587;28;20322;-56
2022/03/21 04:23:15;;;;;;;5.55;5.05;;;;;;;3.99;64.20;99920.13;4098762;28;20203;-56
2022/03/21 04:25:16;;;;;;;8.75;5.38;;;;;;;4.00;63.51;99919.09;4094963;28;20226;-56
2022/03/21 04:27:18;;;;;;;5.97;5.10;;;;;;;4.01;64.22;99918.06;4110877;28;20735;-56
2022/03/21 04:29:20;;;;;;;5.10;4.68;;;;;;;3.99;63.68;99925.53;4094350;28;20216;-57
2022/03/21 04:31:22;;;;;;;5.20;4.70;;;;;;;3.98;63.75;99917.59;4102039;28;20227;-57
2022/03/21 04:33:24;;;;;;;5.70;5.15;;;;;;;3.96;63.84;99922.34;4108777;28;20262;-56
2022/03/21 04:35:26;;;;;;;6.20;5.63;;;;;;;3.95;63.95;99926.88;4109056;28;20589;-57
2022/03/21 04:37:28;;;;;;;5.95;5.35;;;;;;;3.95;63.99;99923.34;4094460;28;20239;-58
2022/03/21 04:39:30;;;;;;;5.90;5.43;;;;;;;3.91;64.19;99928.28;4107358;28;20299;-57
2022/03/21 04:41:32;;;;;;;6.95;5.65;;;;;;;3.89;64.20;99935.75;4092053;28;20232;-57
2022/03/21 04:43:33;;;;;;;5.88;4.93;;;;;;;3.85;63.99;99931.66;4111011;28;20207;-57
2022/03/21 04:45:35;;;;;;;8.30;5.70;;;;;;;3.84;64.00;99926.41;4108157;28;20274;-57
2022/03/21 04:47:37;;;;;;;6.15;5.18;;;;;;;3.83;64.05;99935.56;4087856;28;20223;-57
2022/03/21 04:49:39;;;;;;;6.22;5.63;;;;;;;3.84;63.73;99932.69;4096689;28;20650;-57
2022/03/21 04:51:41;;;;;;;5.30;4.90;;;;;;;3.84;64.25;99938.09;4109010;28;20222;-57
2022/03/21 04:53:43;;;;;;;5.30;4.88;;;;;;;3.85;64.33;99942.50;4108171;28;20226;-57
2022/03/21 04:55:44;;;;;;;5.78;5.35;;;;;;;3.85;64.20;99945.22;4110529;28;20576;-56
2022/03/21 04:57:46;;;;;;;6.78;6.10;;;;;;;3.81;64.01;99943.84;4109657;28;20203;-57
2022/03/21 04:59:48;;;;;;;4.93;4.50;;;;;;;3.80;64.09;99953.00;4110057;28;20588;-57
2022/03/21 05:01:51;;;;;;;6.75;6.07;;;;;;;3.75;64.24;99949.13;4097299;28;20231;-57
2022/03/21 05:03:53;;;;;;;7.47;5.25;;;;;;;3.72;64.34;99957.56;4112541;28;20207;-57
2022/03/21 05:05:55;;;;;;;5.38;4.88;;;;;;;3.62;64.58;99948.81;4093546;28;20219;-57
2022/03/21 05:07:56;;;;;;;5.82;5.00;;;;;;;3.63;64.44;99953.19;4110397;28;20733;-57
2022/03/21 05:09:58;;;;;;;6.47;5.97;;;;;;;3.58;64.58;99953.72;4109504;28;20207;-57
2022/03/21 05:12:00;;;;;;;6.43;4.60;;;;;;;3.53;64.65;99955.25;4111025;28;20250;-57
2022/03/21 05:14:02;;;;;;;7.70;5.55;;;;;;;3.49;64.86;99959.31;4110167;28;20693;-57
2022/03/21 05:16:08;;;;;;;5.93;4.95;;;;;;;3.47;64.94;99964.88;4106854;28;20202;-57
2022/03/21 05:18:09;;;;;;;7.63;6.88;;;;;;;3.44;65.27;99967.94;4106013;28;20207;-57
2022/03/21 05:20:15;;;;;;;6.03;5.53;;;;;;;3.45;64.88;99969.63;4108542;28;20211;-57
2022/03/21 05:22:17;;;;;;;5.93;5.35;;;;;;;3.45;65.37;99975.03;4109898;28;20222;-57
2022/03/21 05:31:19;;;;;;;5.55;5.05;;;;;;;3.39;64.99;99975.69;4105903;28;20226;-58
2022/03/21 05:35:55;;;;;;;5.20;4.80;;;;;;;3.37;65.57;99980.44;4112345;28;20237;-58
2022/03/21 05:37:56;;;;;;;5.18;4.75;;;;;;;3.40;65.42;99987.38;4093172;28;20247;-57
2022/03/21 05:42:18;;;;;;;4.80;4.50;;;;;;;3.49;64.86;99991.78;4110767;28;20298;-58
2022/03/21 05:44:20;;;;;;;6.38;5.82;;;;;;;3.49;64.92;99989.91;4110518;28;20203;-58
2022/03/21 05:46:22;;;;;;;6.47;5.63;;;;;;;3.47;65.25;99991.94;4111782;28;20322;-57
2022/03/21 05:50:45;;;;;;;6.13;5.53;;;;;;;3.47;64.80;99994.63;4106818;28;20756;-58
2022/03/21 05:52:47;;;;;;;5.43;4.93;;;;;;;3.48;65.00;99993.63;4105013;28;20211;-58
2022/03/21 05:54:48;;;;;;;6.63;6.03;;;;;;;3.48;65.30;99996.31;4095238;28;20203;-58
2022/03/21 05:56:50;;;;;;;8.38;7.03;;;;;;;3.48;65.52;99996.31;4087476;28;20214;-57
2022/03/21 05:58:54;;;;;;;5.50;5.10;;;;;;;3.49;64.77;99998.03;4109694;28;20210;-57
2022/03/21 06:00:56;;;;;;;7.00;5.57;;;;;;;3.50;65.05;99991.59;4108906;28;20234;-57
2022/03/21 06:03:00;;;;;;;5.38;4.88;;;;;;;3.51;65.12;99996.00;4106312;28;21437;-58
2022/03/21 06:05:02;;;;;;;5.88;5.32;;;;;;;3.51;65.03;99989.72;4111498;28;20207;-58
2022/03/21 06:07:04;;;;;;;7.55;6.65;;;;;;;3.53;64.72;99998.53;4107285;28;20233;-58
2022/03/21 06:09:06;;;;;;;6.85;6.10;;;;;;;3.55;65.18;99996.50;4105550;28;20211;-57
2022/03/21 06:11:08;;;;;;;6.30;5.70;;;;;;;3.60;65.06;99999.56;4109756;28;20231;-57
2022/03/21 06:13:10;;;;;;;6.82;6.22;;;;;;;3.61;65.19;99996.66;4108403;28;20217;-57
2022/03/21 06:15:12;;;;;;;8.23;6.10;;;;;;;3.62;64.85;100009.19;4092246;28;20761;-58
2022/03/21 06:17:15;;;;;;;5.15;4.68;;;;;;;3.65;64.95;100010.69;4100310;28;20211;-57
2022/03/21 06:19:18;;;;;;;5.13;4.65;;;;;;;3.66;64.64;100015.94;4094713;28;20200;-56
2022/03/21 06:21:21;;;;;;;6.43;5.93;;;;;;;3.72;64.94;100015.28;4090424;28;20232;-57
2022/03/21 06:23:23;;;;;;;10.32;6.53;;;;;;;3.70;65.04;100017.31;4113545;28;20218;-60
2022/03/21 06:25:29;;;;;;;6.40;5.72;;;;;;;3.58;65.84;100026.78;4110035;28;20280;-59
2022/03/21 06:27:38;;;;;;;6.38;5.85;;;;;;;3.66;65.83;100032.19;4111925;28;20269;-55
2022/03/21 06:29:42;;;;;;;6.18;5.60;;;;;;;3.74;65.63;100034.06;4110233;28;20202;-52
2022/03/21 06:31:44;;;;;;;6.65;6.00;;;;;;;3.85;65.58;100041.81;4112438;28;20734;-52
2022/03/21 06:33:46;;;;;;;6.75;6.15;;;;;;;4.08;66.56;100040.94;4113596;28;20218;-53
2022/03/21 06:35:52;;;;;;;6.20;5.70;;;;;;;4.08;66.28;100040.94;4098493;28;20211;-52
2022/03/21 06:37:53;;;;;;;11.60;6.05;;;;;;;4.05;66.46;100045.84;4114768;28;20238;-53
2022/03/21 06:39:55;;;;;;;6.97;6.38;;;;;;;3.95;65.89;100054.16;4091149;28;20537;-52
2022/03/21 06:41:57;;;;;;;7.13;6.53;;;;;;;4.00;65.82;100051.78;4090880;28;20255;-53
2022/03/21 06:44:02;;;;;;;7.00;6.32;;;;;;;4.15;65.89;100049.25;4114327;28;20210;-52
2022/03/21 06:46:05;;;;;;;6.95;6.35;;;;;;;4.26;65.48;100057.84;4095409;28;20710;-56
2022/03/21 06:48:07;;;;;;;6.60;6.13;;;;;;;4.75;65.94;100062.13;4095763;28;20801;-52
2022/03/21 06:50:10;;;;;;;7.00;6.43;;;;;;;4.91;65.14;100063.91;4114722;28;20266;-52
2022/03/21 06:52:12;;;;;;;7.85;7.05;;;;;;;5.06;63.88;100067.59;4114239;28;20253;-52
2022/03/21 06:54:14;;;;;;;6.53;6.03;;;;;;;5.30;63.94;100060.97;4111521;28;20271;-52
2022/03/21 06:56:16;;;;;;;9.23;6.38;;;;;;;6.23;62.95;100060.59;4081004;28;20204;-52
2022/03/21 06:58:18;;;;;;;7.38;6.68;;;;;;;6.88;62.37;100060.75;4096606;28;20211;-52
2022/03/21 07:00:19;;;;;;;7.70;7.10;;;;;;;7.33;60.92;100055.03;4111554;28;20218;-52
2022/03/21 07:02:23;;;;;;;7.88;7.03;;;;;;;7.51;59.89;100060.91;4094682;28;20625;-53
2022/03/21 07:04:26;;;;;;;6.65;6.03;;;;;;;7.78;59.12;100065.59;4095581;28;20207;-52
2022/03/21 07:06:28;;;;;;;7.65;7.05;;;;;;;7.84;60.08;100053.91;4095381;28;20238;-53
2022/03/21 07:08:31;;;;;;;6.57;5.68;;;;;;;8.08;59.81;100058.97;4113492;28;20693;-53
2022/03/21 07:10:33;;;;;;;6.57;5.78;;;;;;;8.54;58.81;100062.94;4112182;28;20227;-54
2022/03/21 07:12:35;;;;;;;7.38;6.65;;;;;;;8.68;56.72;100064.72;4112156;28;20210;-54
2022/03/21 07:14:37;;;;;;;6.85;6.15;;;;;;;8.84;55.51;100072.56;4089749;29;20240;-52
2022/03/21 07:16:39;;;;;;;7.03;6.32;;;;;;;9.41;55.05;100070.34;4111007;28;21107;-52
2022/03/21 07:18:42;;;;;;;6.20;5.68;;;;;;;9.40;55.42;100083.16;4098483;28;20214;-52
2022/03/21 07:20:44;;;;;;;10.10;6.90;;;;;;;9.38;54.63;100078.94;4112937;28;20226;-53
2022/03/21 07:22:48;;;;;;;6.25;5.65;;;;;;;10.16;53.24;100069.03;4086421;28;20583;-54
2022/03/21 07:24:50;;;;;;;6.25;5.68;;;;;;;10.37;52.49;100076.22;4108322;28;20214;-54
2022/03/21 07:26:51;;;;;;;7.03;6.53;;;;;;;10.22;52.29;100067.38;4111316;28;20256;-52
2022/03/21 07:28:55;;;;;;;6.95;6.43;;;;;;;9.95;51.93;100065.63;4110124;28;20210;-52
2022/03/21 07:31:13;;;;;;;7.75;7.05;;;;;;;10.18;52.08;100077.91;4107292;28;20252;-53
2022/03/21 07:33:15;;;;;;;5.32;4.82;;;;;;;10.21;52.66;100069.25;4108895;28;20567;-54
2022/03/21 07:35:17;;;;;;;5.75;5.28;;;;;;;10.57;52.16;100066.09;4108002;28;20293;-53
2022/03/21 07:37:19;;;;;;;5.88;5.38;;;;;;;10.38;51.78;100066.94;4108707;28;20212;-53
2022/03/21 07:39:20;;;;;;;6.53;5.65;;;;;;;10.42;51.48;100076.44;4086127;28;20212;-53
2022/03/21 07:41:26;;;;;;;6.15;5.55;;;;;;;10.45;52.17;100063.16;4111116;28;20230;-53
2022/03/21 07:43:28;;;;;;;7.22;6.50;;;;;;;11.31;50.43;100077.28;4113087;28;20319;-53
2022/03/21 07:47:51;;;;;;;6.75;6.15;;;;;;;11.72;49.01;100080.50;4114761;28;20245;-52
2022/03/21 07:49:55;;;;;;;7.20;6.50;;;;;;;10.28;50.50;100080.22;4112454;28;20214;-51
2022/03/21 07:51:56;;;;;;;7.03;6.43;;;;;;;10.21;50.88;100084.84;4097499;28;20238;-51
2022/03/21 07:54:00;;;;;;;6.97;6.28;;;;;;;10.77;50.13;100085.03;4111469;28;20222;-51
2022/03/21 07:56:29;;;;;;;6.00;5.50;;;;;;;11.25;49.58;100083.63;4110763;28;20262;-51
2022/03/21 07:58:31;;;;;;;6.47;5.55;;;;;;;11.58;49.93;100084.38;4108949;28;20218;-51
2022/03/21 08:00:33;;;;;;;10.95;6.13;;;;;;;12.01;49.49;100074.44;4112856;28;20265;-52
2022/03/21 08:02:36;;;;;;;6.72;5.80;;;;;;;13.65;46.64;100089.13;4110622;28;20237;-52
2022/03/21 08:04:37;;;;;;;5.82;5.30;;;;;;;13.84;45.46;100082.47;4106781;28;20298;-51
2022/03/21 08:06:40;;;;;;;5.82;5.20;;;;;;;12.56;47.48;100079.06;4111245;28;20246;-52
2022/03/21 08:08:41;;;;;;;6.90;5.22;;;;;;;13.43;45.94;100087.91;4109685;28;20238;-52
2022/03/21 08:10:43;;;;;;;5.53;4.97;;;;;;;13.33;46.55;100084.84;4113010;28;20258;-50
2022/03/21 08:12:46;;;;;;;6.65;5.95;;;;;;;13.80;46.85;100083.19;4092642;28;20641;-50
2022/03/21 08:14:48;;;;;;;6.25;5.28;;;;;;;14.20;45.21;100085.19;4106733;28;20337;-49
2022/03/21 08:16:51;;;;;;;6.60;5.82;;;;;;;14.70;45.05;100080.94;4104276;28;20225;-50
2022/03/21 08:19:11;;;;;;;6.28;5.68;;;;;;;15.22;43.74;100084.69;4124444;28;20233;-51
2022/03/21 08:21:12;;;;;;;6.35;5.78;;;;;;;14.27;44.17;100082.31;4123962;28;20233;-51
2022/03/21 08:23:20;;;;;;;5.85;5.25;;;;;;;13.93;45.51;100083.00;4132286;28;20244;-53
2022/03/21 08:25:22;;;;;;;6.53;5.93;;;;;;;14.12;45.63;100076.38;4129670;28;20260;-53
2022/03/21 08:27:39;;;;;;;6.43;5.82;;;;;;;14.44;45.47;100081.38;4127616;28;20596;-51
2022/03/21 08:30:08;;;;;;;5.85;4.28;;;;;;;14.57;44.86;100083.94;4132548;28;20207;-51
2022/03/21 08:32:22;;;;;;;5.38;4.75;;;;;;;14.28;45.67;100081.22;4131412;28;20226;-51
2022/03/21 08:34:24;;;;;;;5.90;5.30;;;;;;;15.15;44.21;100095.81;4105316;28;20325;-52
2022/03/21 08:36:27;;;;;;;6.40;5.80;;;;;;;15.88;43.32;100090.53;4119390;28;20230;-51
2022/03/21 08:38:29;;;;;;;4.97;4.47;;;;;;;14.65;43.48;100094.63;4107856;28;20199;-52
2022/03/21 08:40:31;;;;;;;7.88;5.30;;;;;;;14.79;44.11;100104.34;4107425;28;20317;-51
2022/03/21 08:42:33;;;;;;;5.63;5.10;;;;;;;14.13;44.88;100092.66;4107479;28;20207;-51
2022/03/21 08:44:37;;;;;;;12.82;5.30;;;;;;;13.48;45.90;100096.31;4108833;28;20700;-51
2022/03/21 08:46:39;;;;;;;6.55;5.85;;;;;;;15.34;44.41;100094.63;4104720;28;20320;-52
2022/03/21 08:51:21;;;;;;;6.25;5.60;;;;;;;15.28;44.15;100101.09;4128511;28;20267;-50
2022/03/21 08:53:23;;;;;;;4.38;3.97;;;;;;;16.34;42.85;100096.69;4126901;28;20285;-51
2022/03/21 08:55:25;;;;;;;4.95;4.55;;;;;;;16.44;42.75;100096.06;4113044;28;20208;-50
2022/03/21 08:57:28;;;;;;;4.72;4.10;;;;;;;17.03;41.82;100099.00;4129372;28;20727;-50
2022/03/21 08:59:31;;;;;;;4.25;3.63;;;;;;;16.66;41.64;100100.59;4129071;28;20210;-50
2022/03/21 09:01:34;;;;;;;5.35;4.63;;;;;;;17.37;40.91;100097.88;4104673;28;20227;-50
2022/03/21 09:03:38;;;;;;;10.55;4.70;;;;;;;17.49;40.77;100098.59;4095897;28;20207;-53
2022/03/21 09:05:40;;;;;;;4.70;3.88;;;;;;;17.12;40.17;100095.53;4110731;28;20206;-49
2022/03/21 09:07:42;;;;;;;5.93;4.35;;;;;;;17.35;40.81;100105.56;4131563;28;20604;-48
2022/03/21 09:09:44;;;;;;;4.47;4.07;;;;;;;17.45;40.45;100100.22;4130798;28;20202;-50
2022/03/21 09:11:46;;;;;;;3.95;3.45;;;;;;;17.57;40.54;100099.00;4107935;28;20261;-52
2022/03/21 09:13:49;;;;;;;5.38;4.65;;;;;;;17.90;40.43;100098.00;4127703;28;20297;-51
2022/03/21 09:15:51;;;;;;;4.05;3.65;;;;;;;17.62;40.59;100093.53;4110848;28;20252;-50
2022/03/21 09:17:58;;;;;;;3.65;3.33;;;;;;;17.32;40.01;100092.25;4111622;28;20210;-50
2022/03/21 09:20:00;;;;;;;4.47;3.53;;;;;;;17.84;40.36;100088.00;4111977;28;20306;-50
2022/03/21 09:22:03;;;;;;;3.58;3.05;;;;;;;17.81;40.25;100094.03;4127940;28;20234;-50
2022/03/21 09:24:05;;;;;;;3.85;3.40;;;;;;;17.98;39.87;100092.03;4129709;28;20218;-51
2022/03/21 09:26:11;;;;;;;3.72;3.13;;;;;;;17.11;41.06;100095.81;4127397;28;20223;-51
2022/03/21 09:28:20;;;;;;;3.63;3.33;;;;;;;17.61;40.92;100091.00;4113315;28;20234;-51
2022/03/21 09:30:22;;;;;;;3.83;2.78;;;;;;;17.53;41.02;100091.47;4112805;28;20202;-50
2022/03/21 09:32:25;;;;;;;3.85;3.55;;;;;;;17.16;41.29;100095.88;4107498;28;20206;-51
2022/03/21 09:34:28;;;;;;;2.58;2.38;;;;;;;17.82;40.96;100092.94;4127743;28;20245;-49
2022/03/21 09:36:31;;;;;;;4.22;3.42;;;;;;;17.85;39.66;100089.66;4106981;28;20269;-50
2022/03/21 09:38:34;;;;;;;3.88;3.38;;;;;;;17.47;40.32;100086.94;4127650;28;20220;-50
2022/03/21 09:40:37;;;;;;;3.90;3.50;;;;;;;17.89;40.75;100090.81;4104239;28;20235;-49
2022/03/21 09:42:41;;;;;;;3.47;2.88;;;;;;;18.15;40.28;100084.47;4128261;28;20202;-49
2022/03/21 09:44:44;;;;;;;4.82;3.28;;;;;;;18.07;40.26;100085.78;4097668;28;20239;-51
2022/03/21 09:46:47;;;;;;;2.97;2.67;;;;;;;18.03;40.10;100086.53;4110724;28;20289;-50
2022/03/21 09:48:52;;;;;;;4.32;3.45;;;;;;;18.53;40.03;100076.00;4129145;28;20202;-49
2022/03/21 09:50:56;;;;;;;3.72;3.15;;;;;;;18.73;39.33;100076.19;4128103;28;20597;-50
2022/03/21 09:52:59;;;;;;;2.90;2.70;;;;;;;18.35;39.26;100070.84;4112082;28;20254;-50
2022/03/21 09:55:03;;;;;;;3.25;2.95;;;;;;;18.61;38.78;100067.22;4127074;28;20238;-49
2022/03/21 09:57:07;;;;;;;3.28;2.67;;;;;;;18.43;39.47;100064.81;4127464;28;20245;-49
2022/03/21 09:59:19;;;;;;;3.33;2.97;;;;;;;18.44;39.43;100060.97;4127751;28;20210;-51
2022/03/21 10:01:22;;;;;;;3.08;2.22;;;;;;;18.82;39.53;100063.50;4129514;28;20238;-50
2022/03/21 10:03:25;;;;;;;5.78;2.45;;;;;;;18.75;39.46;100058.19;4125401;28;20248;-50